Time;durP1;ratioP1;P1;durP2;ratioP2;P2;SDS_P1;SDS_P2;PMS_P1;PMS_P2;Temp;Humidity;BMP_temperature;BMP_pressure;BME280_temperature;BME280_humidity;BME280_pressure;Samples;Min_cycle;Max_cycle;Signal;HPM_P1;HPM_P2
2021/12/11 00:00:45;;;;;;;55.23;16.03;;;;;;;6.12;100.00;96479.66;5072932;28;20745;-65
2021/12/11 00:03:17;;;;;;;38.80;15.50;;;;;;;6.30;100.00;96479.06;5073124;28;20617;-64
2021/12/11 00:05:48;;;;;;;48.73;15.77;;;;;;;6.44;100.00;96489.88;5072860;28;20626;-65
2021/12/11 00:08:18;;;;;;;31.80;15.10;;;;;;;6.42;100.00;96492.81;5073002;28;20595;-66
2021/12/11 00:10:52;;;;;;;58.50;16.30;;;;;;;6.30;100.00;96494.97;5072569;28;20614;-65
2021/12/11 00:13:29;;;;;;;39.97;15.53;;;;;;;5.78;100.00;96499.81;5072932;28;20625;-64
2021/12/11 00:15:57;;;;;;;57.77;16.50;;;;;;;5.47;100.00;96499.03;5072594;28;20590;-65
2021/12/11 00:18:29;;;;;;;42.17;15.73;;;;;;;4.98;100.00;96511.94;5072811;28;20595;-65
2021/12/11 00:21:00;;;;;;;33.03;14.57;;;;;;;5.02;100.00;96512.97;5084332;28;20668;-65
2021/12/11 00:23:31;;;;;;;53.17;17.27;;;;;;;5.02;100.00;96520.13;5084561;28;20614;-65
2021/12/11 00:25:59;;;;;;;49.53;15.50;;;;;;;4.46;100.00;96519.94;5072696;28;20979;-64
2021/12/11 00:28:26;;;;;;;58.97;19.53;;;;;;;4.74;100.00;96524.00;5072677;28;20641;-66
2021/12/11 00:30:53;;;;;;;47.27;16.20;;;;;;;4.95;100.00;96525.69;5072367;28;20602;-65
2021/12/11 00:33:24;;;;;;;51.00;15.93;;;;;;;4.89;100.00;96530.13;5072453;28;20592;-65
2021/12/11 00:35:52;;;;;;;65.83;18.23;;;;;;;5.13;100.00;96537.63;5072237;28;20595;-65
2021/12/11 00:38:25;;;;;;;45.97;15.23;;;;;;;4.89;100.00;96547.84;5072407;28;20610;-66
2021/12/11 00:40:53;;;;;;;37.60;14.80;;;;;;;4.66;100.00;96543.03;5072067;28;20642;-64
2021/12/11 00:43:28;;;;;;;57.87;16.90;;;;;;;4.68;100.00;96552.28;5072338;28;21242;-64
2021/12/11 00:45:56;;;;;;;66.03;16.53;;;;;;;4.33;100.00;96555.53;5072134;28;20627;-64
2021/12/11 00:48:26;;;;;;;34.50;14.17;;;;;;;4.65;100.00;96555.44;5072215;28;20607;-65
2021/12/11 00:50:56;;;;;;;43.70;15.47;;;;;;;4.61;100.00;96562.28;5083138;28;20606;-64
2021/12/11 00:53:26;;;;;;;42.37;14.83;;;;;;;4.95;100.00;96560.06;5083952;28;20602;-65
2021/12/11 00:55:55;;;;;;;26.60;14.40;;;;;;;5.04;100.00;96565.66;5080952;28;20599;-65
2021/12/11 00:58:27;;;;;;;34.17;15.43;;;;;;;5.20;100.00;96570.69;5080324;28;20611;-64
2021/12/11 01:00:57;;;;;;;48.60;15.53;;;;;;;4.85;100.00;96567.97;5081392;28;20645;-64
2021/12/11 01:03:28;;;;;;;43.30;14.83;;;;;;;5.59;100.00;96572.91;5083709;28;20620;-64
2021/12/11 01:05:57;;;;;;;45.83;14.83;;;;;;;5.66;100.00;96584.84;5080441;28;20595;-66
2021/12/11 01:08:28;;;;;;;34.67;16.00;;;;;;;5.02;100.00;96584.41;5079982;28;20618;-65
2021/12/11 01:11:06;;;;;;;46.93;16.90;;;;;;;5.02;100.00;96589.72;5082734;28;20637;-65
2021/12/11 01:13:44;;;;;;;52.50;18.23;;;;;;;5.10;100.00;96594.50;5083356;28;20642;-65
2021/12/11 01:16:14;;;;;;;56.50;17.60;;;;;;;4.87;100.00;96605.53;5079938;28;20611;-64
2021/12/11 01:18:45;;;;;;;56.33;17.70;;;;;;;4.78;100.00;96604.44;5082942;28;20637;-64
2021/12/11 01:21:34;;;;;;;33.97;17.10;;;;;;;5.31;100.00;96613.88;5083250;28;20667;-65
2021/12/11 01:24:14;;;;;;;33.93;14.00;;;;;;;5.78;100.00;96609.22;5078798;28;20677;-65
2021/12/11 01:26:46;;;;;;;57.27;17.30;;;;;;;5.44;100.00;96623.97;5080702;28;20662;-66
2021/12/11 01:29:15;;;;;;;45.30;15.60;;;;;;;5.59;100.00;96609.97;5083325;28;20636;-65
2021/12/11 01:31:42;;;;;;;46.37;15.80;;;;;;;5.58;100.00;96622.41;5080520;28;20606;-64
2021/12/11 01:34:10;;;;;;;35.17;13.70;;;;;;;6.09;100.00;96614.53;5079611;28;20602;-65
2021/12/11 01:36:38;;;;;;;80.77;18.37;;;;;;;6.23;100.00;96615.59;5079935;28;20604;-65
2021/12/11 01:39:09;;;;;;;41.80;16.10;;;;;;;6.69;100.00;96619.75;5083000;28;20629;-64
2021/12/11 01:41:36;;;;;;;50.73;16.60;;;;;;;6.61;100.00;96617.66;5082347;28;20653;-64
2021/12/11 01:44:08;;;;;;;42.73;16.33;;;;;;;6.85;100.00;96623.97;5079310;28;20645;-64
2021/12/11 01:46:36;;;;;;;54.90;15.70;;;;;;;6.50;100.00;96627.47;5079491;28;20599;-64
2021/12/11 01:49:10;;;;;;;69.63;16.57;;;;;;;6.42;100.00;96636.00;5084616;28;20640;-65
2021/12/11 01:51:41;;;;;;;79.10;17.47;;;;;;;6.31;100.00;96639.69;5081749;28;20735;-64
2021/12/11 01:54:13;;;;;;;30.47;14.63;;;;;;;6.32;100.00;96641.28;5079222;28;20603;-64
2021/12/11 01:56:46;;;;;;;89.87;17.67;;;;;;;6.33;100.00;96637.59;5079944;28;20607;-64
2021/12/11 01:59:16;;;;;;;35.23;13.30;;;;;;;6.41;100.00;96645.00;5082465;28;20616;-64
2021/12/11 02:01:48;;;;;;;59.80;15.03;;;;;;;5.85;100.00;96660.09;5079906;28;20649;-64
2021/12/11 02:04:18;;;;;;;35.67;13.87;;;;;;;6.31;100.00;96660.13;5078977;28;20587;-64
2021/12/11 02:06:48;;;;;;;60.53;14.80;;;;;;;6.17;100.00;96657.22;5080107;28;20679;-64
2021/12/11 02:09:19;;;;;;;48.80;13.70;;;;;;;6.56;100.00;96654.00;5082255;28;20609;-64
2021/12/11 02:11:47;;;;;;;45.17;14.90;;;;;;;6.21;100.00;96663.59;5079065;28;20622;-64
2021/12/11 02:14:20;;;;;;;38.60;12.30;;;;;;;5.97;100.00;96660.63;5078573;28;20619;-64
2021/12/11 02:16:51;;;;;;;44.93;13.23;;;;;;;6.09;100.00;96663.03;5080399;28;20612;-64
2021/12/11 02:19:22;;;;;;;36.30;12.30;;;;;;;6.41;100.00;96671.50;5084198;28;20610;-64
2021/12/11 02:21:55;;;;;;;42.30;12.47;;;;;;;6.38;100.00;96672.03;5079409;28;20753;-64
2021/12/11 02:24:24;;;;;;;31.27;11.87;;;;;;;6.53;100.00;96675.78;5078456;28;20623;-65
2021/12/11 02:26:53;;;;;;;26.53;11.13;;;;;;;6.65;100.00;96669.13;5080759;28;20619;-65
2021/12/11 02:29:25;;;;;;;40.83;9.17;;;;;;;6.74;100.00;96669.38;5081952;28;21222;-65
2021/12/11 02:31:55;;;;;;;18.93;5.77;;;;;;;6.70;100.00;96681.56;5079024;28;20601;-64
2021/12/11 02:34:28;;;;;;;19.10;4.20;;;;;;;6.79;100.00;96680.75;5078298;28;21182;-65
2021/12/11 02:37:02;;;;;;;18.30;3.93;;;;;;;6.55;100.00;96686.88;5081460;28;20595;-64
2021/12/11 02:39:32;;;;;;;24.73;5.20;;;;;;;6.59;100.00;96703.88;5081913;28;21294;-66
2021/12/11 02:42:04;;;;;;;14.57;4.33;;;;;;;6.67;100.00;96701.47;5078345;28;20676;-64
2021/12/11 02:44:37;;;;;;;6.93;2.90;;;;;;;6.67;100.00;96712.09;5078249;28;20591;-65
2021/12/11 02:47:10;;;;;;;26.33;4.57;;;;;;;6.77;100.00;96701.47;5078298;28;20610;-64
2021/12/11 02:49:43;;;;;;;55.53;4.77;;;;;;;6.84;100.00;96707.28;5087287;28;20610;-65
2021/12/11 02:52:16;;;;;;;20.87;3.50;;;;;;;6.73;100.00;96710.22;5078136;28;20686;-64
2021/12/11 02:54:49;;;;;;;22.57;3.53;;;;;;;6.62;100.00;96708.66;5079263;28;20611;-64
2021/12/11 02:57:19;;;;;;;26.20;3.50;;;;;;;6.58;100.00;96712.88;5081576;28;20606;-65
2021/12/11 02:59:47;;;;;;;37.33;4.30;;;;;;;6.48;100.00;96730.38;5079144;28;20621;-65
2021/12/11 03:02:19;;;;;;;34.73;3.63;;;;;;;6.63;100.00;96732.25;5077864;28;20688;-65
2021/12/11 03:04:51;;;;;;;21.53;2.80;;;;;;;6.43;100.00;96735.72;5079524;28;20622;-64
2021/12/11 03:07:23;;;;;;;56.37;5.30;;;;;;;6.52;100.00;96728.00;5081013;28;20610;-64
2021/12/11 03:09:53;;;;;;;27.23;3.60;;;;;;;6.50;100.00;96736.22;5078441;28;20638;-64
2021/12/11 03:12:21;;;;;;;17.93;2.90;;;;;;;6.47;100.00;96742.06;5077756;28;20595;-64
2021/12/11 03:14:49;;;;;;;25.90;3.43;;;;;;;6.52;100.00;96749.22;5079749;28;20591;-64
2021/12/11 03:17:19;;;;;;;12.80;2.50;;;;;;;6.43;100.00;96746.31;5081144;28;20597;-64
2021/12/11 03:19:46;;;;;;;51.80;5.03;;;;;;;6.20;100.00;96759.25;5081012;28;20602;-64
2021/12/11 03:22:17;;;;;;;37.37;3.60;;;;;;;6.42;100.00;96751.88;5077493;28;20649;-64
2021/12/11 03:24:45;;;;;;;44.60;4.53;;;;;;;6.50;100.00;96757.44;5078650;28;20610;-64
2021/12/11 03:27:13;;;;;;;24.13;3.30;;;;;;;6.43;100.00;96759.56;5081026;28;20624;-64
2021/12/11 03:29:41;;;;;;;36.00;3.47;;;;;;;6.43;100.00;96764.88;5079806;28;20629;-64
2021/12/11 03:32:10;;;;;;;37.03;3.40;;;;;;;6.47;100.00;96773.88;5077634;28;20607;-64
2021/12/11 03:34:38;;;;;;;50.87;4.23;;;;;;;6.61;100.00;96774.16;5110800;28;20646;-65
2021/12/11 03:37:08;;;;;;;24.00;3.60;;;;;;;6.68;100.00;96781.84;5081109;28;20664;-65
2021/12/11 03:39:38;;;;;;;24.07;2.70;;;;;;;6.58;100.00;96777.34;5080483;28;20709;-64
2021/12/11 03:42:11;;;;;;;14.90;2.10;;;;;;;6.64;100.00;96786.09;5077444;28;20670;-63
2021/12/11 03:44:38;;;;;;;19.43;3.07;;;;;;;6.64;100.00;96791.41;5077942;28;20607;-64
2021/12/11 03:47:08;;;;;;;11.40;2.00;;;;;;;6.67;100.00;96791.66;5080941;28;20633;-64
2021/12/11 03:49:35;;;;;;;10.57;1.83;;;;;;;6.55;100.00;96803.59;5082453;28;20613;-63
2021/12/11 03:52:04;;;;;;;20.60;2.37;;;;;;;6.66;100.00;96794.56;5077436;28;20602;-63
2021/12/11 03:54:35;;;;;;;21.73;2.47;;;;;;;6.46;100.00;96805.97;5077236;28;21475;-63
2021/12/11 03:57:02;;;;;;;38.60;3.30;;;;;;;6.58;100.00;96803.06;5076239;28;20633;-64
2021/12/11 03:59:31;;;;;;;19.33;2.03;;;;;;;6.59;100.00;96809.97;5077136;28;20607;-64
2021/12/11 04:02:02;;;;;;;13.33;1.57;;;;;;;6.65;100.00;96814.22;5077062;28;20638;-65
2021/12/11 04:04:33;;;;;;;83.80;5.47;;;;;;;6.56;100.00;96808.63;5077119;28;20615;-64
2021/12/11 04:07:01;;;;;;;39.70;3.53;;;;;;;6.42;100.00;96812.84;5076995;28;20619;-63
2021/12/11 04:09:29;;;;;;;30.43;2.53;;;;;;;6.44;100.00;96826.63;5076950;28;20615;-64
2021/12/11 04:11:57;;;;;;;43.77;3.47;;;;;;;6.38;100.00;96827.69;5079052;28;20613;-64
2021/12/11 04:14:28;;;;;;;29.37;2.63;;;;;;;6.34;100.00;96824.78;5080510;28;20610;-64
2021/12/11 04:16:57;;;;;;;6.43;1.97;;;;;;;6.29;100.00;96838.00;5077481;28;20657;-63
2021/12/11 04:19:25;;;;;;;17.03;1.57;;;;;;;6.05;100.00;96842.19;5085249;28;20639;-64
2021/12/11 04:21:54;;;;;;;23.43;2.60;;;;;;;5.95;100.00;96844.78;5077604;28;20711;-63
2021/12/11 04:24:26;;;;;;;23.23;2.63;;;;;;;6.04;100.00;96845.09;5077045;28;20595;-64
2021/12/11 04:26:55;;;;;;;14.30;1.50;;;;;;;5.97;100.00;96835.53;5079568;28;20700;-63
2021/12/11 04:29:22;;;;;;;40.07;3.03;;;;;;;5.80;100.00;96842.06;5079419;28;20603;-65
2021/12/11 04:31:50;;;;;;;36.57;2.80;;;;;;;5.87;100.00;96843.44;5077873;28;20629;-65
2021/12/11 04:34:22;;;;;;;46.50;3.33;;;;;;;5.90;100.00;96855.38;5077025;28;21174;-64
2021/12/11 04:36:51;;;;;;;48.43;3.70;;;;;;;6.05;100.00;96852.78;5081729;28;20607;-64
2021/12/11 04:39:21;;;;;;;27.17;2.50;;;;;;;6.13;100.00;96860.22;5083598;28;20622;-64
2021/12/11 04:41:56;;;;;;;35.63;3.07;;;;;;;6.09;100.00;96850.41;5081506;28;20633;-64
2021/12/11 04:44:28;;;;;;;7.93;1.43;;;;;;;6.01;100.00;96854.34;5080429;28;20598;-65
2021/12/11 04:46:55;;;;;;;27.50;2.37;;;;;;;6.19;100.00;96863.72;5083213;28;20610;-64
2021/12/11 04:49:32;;;;;;;27.07;2.30;;;;;;;6.27;100.00;96876.47;5085866;28;20610;-64
2021/12/11 04:52:05;;;;;;;28.90;2.40;;;;;;;6.14;100.00;96880.38;5080182;28;20633;-66
2021/12/11 04:54:45;;;;;;;24.47;2.07;;;;;;;6.23;100.00;96881.47;5080209;28;20603;-65
2021/12/11 05:00:07;;;;;;;19.43;1.80;;;;;;;6.30;100.00;96883.88;5078871;28;20637;-65
2021/12/11 05:02:58;;;;;;;28.20;2.73;;;;;;;6.17;100.00;96887.81;5079962;28;20643;-66
2021/12/11 05:05:45;;;;;;;14.57;1.93;;;;;;;6.24;100.00;96895.53;5083568;28;20609;-65
2021/12/11 05:08:37;;;;;;;36.07;2.67;;;;;;;6.30;100.00;96892.66;5080108;28;20610;-65
2021/12/11 05:11:06;;;;;;;28.37;1.87;;;;;;;6.26;100.00;96899.50;5079587;28;20654;-65
2021/12/11 05:13:33;;;;;;;43.97;2.97;;;;;;;6.27;100.00;96906.41;5079655;28;20611;-65
2021/12/11 05:16:02;;;;;;;44.97;3.37;;;;;;;6.12;100.00;96906.38;5079792;28;20595;-64
2021/12/11 05:18:32;;;;;;;64.97;4.17;;;;;;;6.03;100.00;96910.56;5080641;28;20602;-65
2021/12/11 05:21:13;;;;;;;49.63;3.20;;;;;;;6.18;100.00;96915.13;5095966;28;20646;-64
2021/12/11 05:23:40;;;;;;;61.23;4.33;;;;;;;6.10;100.00;96919.06;5080387;28;20622;-64
2021/12/11 05:26:07;;;;;;;5.97;1.10;;;;;;;6.19;100.00;96912.19;5083081;28;20603;-65
2021/12/11 05:28:33;;;;;;;32.37;2.43;;;;;;;6.10;100.00;96919.06;5083044;28;21193;-64
2021/12/11 05:31:03;;;;;;;42.57;3.03;;;;;;;6.23;100.00;96926.53;5079484;28;20603;-65
2021/12/11 05:33:30;;;;;;;24.33;2.70;;;;;;;6.26;100.00;96926.03;5079406;28;20603;-65
2021/12/11 05:35:58;;;;;;;8.40;1.47;;;;;;;6.17;100.00;96932.88;5082768;28;20606;-65
2021/12/11 05:38:27;;;;;;;18.93;2.10;;;;;;;6.21;100.00;96941.91;5082983;28;20617;-65
2021/12/11 05:40:58;;;;;;;36.40;2.90;;;;;;;6.21;100.00;96939.28;5079570;28;20704;-64
2021/12/11 05:43:25;;;;;;;27.23;2.57;;;;;;;6.21;100.00;96941.91;5079336;28;21022;-65
2021/12/11 05:45:52;;;;;;;33.07;2.53;;;;;;;6.04;100.00;96943.13;5081611;28;20599;-66
2021/12/11 05:48:18;;;;;;;16.17;1.67;;;;;;;5.99;100.00;96954.53;5082969;28;20617;-65
2021/12/11 05:50:48;;;;;;;21.67;2.03;;;;;;;6.03;100.00;96955.63;5083589;28;20637;-65
2021/12/11 05:53:15;;;;;;;10.73;1.50;;;;;;;5.94;100.00;96963.22;5082577;28;20606;-65
2021/12/11 05:55:46;;;;;;;47.13;3.80;;;;;;;6.07;100.00;96967.28;5080721;28;20624;-64
2021/12/11 05:58:22;;;;;;;21.57;2.70;;;;;;;6.14;100.00;96967.84;5079253;28;20821;-65
2021/12/11 06:00:50;;;;;;;31.47;2.80;;;;;;;6.07;100.00;96974.44;5080850;28;20681;-65
2021/12/11 06:03:17;;;;;;;11.37;1.57;;;;;;;6.16;100.00;96975.56;5082221;28;20614;-65
2021/12/11 06:05:44;;;;;;;24.70;2.00;;;;;;;6.15;100.00;96989.88;5080587;28;20606;-65
2021/12/11 06:08:12;;;;;;;5.33;1.60;;;;;;;6.12;100.00;96995.69;5078755;28;20607;-65
2021/12/11 06:10:41;;;;;;;21.93;2.50;;;;;;;6.13;100.00;96997.28;5079328;28;20630;-64
2021/12/11 06:13:11;;;;;;;21.50;2.20;;;;;;;6.20;100.00;97009.25;5081869;28;20666;-66
2021/12/11 06:15:39;;;;;;;16.67;2.33;;;;;;;6.24;100.00;97010.34;5081246;28;20602;-65
2021/12/11 06:18:09;;;;;;;51.57;4.07;;;;;;;6.34;100.00;97017.53;5077803;28;20614;-65
2021/12/11 06:20:36;;;;;;;63.07;5.77;;;;;;;6.24;100.00;97023.59;5080940;28;20607;-65
2021/12/11 06:23:03;;;;;;;16.73;2.10;;;;;;;6.36;100.00;97034.78;5080727;28;20683;-65
2021/12/11 06:25:34;;;;;;;25.90;2.63;;;;;;;6.31;100.00;97041.91;5081793;28;20621;-64
2021/12/11 06:28:01;;;;;;;16.23;2.87;;;;;;;6.23;100.00;97043.19;5078426;28;20641;-65
2021/12/11 06:30:29;;;;;;;26.90;2.90;;;;;;;6.27;100.00;97056.75;5078498;28;20684;-65
2021/12/11 06:32:57;;;;;;;36.47;3.30;;;;;;;6.30;100.00;97056.22;5080381;28;20602;-64
2021/12/11 06:35:29;;;;;;;22.43;2.87;;;;;;;6.31;100.00;97050.66;5081776;28;20636;-63
2021/12/11 06:37:57;;;;;;;46.97;4.30;;;;;;;6.36;100.00;97058.66;5078351;28;20599;-65
2021/12/11 06:40:26;;;;;;;31.97;3.63;;;;;;;6.31;100.00;97063.91;5078057;28;20598;-65
2021/12/11 06:42:53;;;;;;;12.90;2.43;;;;;;;6.32;100.00;97076.13;5080607;28;20685;-65
2021/12/11 06:45:21;;;;;;;21.67;2.80;;;;;;;6.31;100.00;97074.50;5081712;28;20632;-66
2021/12/11 06:47:49;;;;;;;32.27;3.80;;;;;;;6.33;100.00;97083.03;5079430;28;20636;-64
2021/12/11 06:50:18;;;;;;;28.70;2.57;;;;;;;6.37;100.00;97089.44;5080296;28;20603;-65
2021/12/11 06:52:45;;;;;;;36.07;3.70;;;;;;;6.39;100.00;97087.31;5079376;28;20635;-64
2021/12/11 06:55:13;;;;;;;55.70;5.27;;;;;;;6.36;100.00;97089.66;5081406;28;20598;-65
2021/12/11 06:57:39;;;;;;;54.57;4.83;;;;;;;6.32;100.00;97102.63;5079841;28;20594;-64
2021/12/11 07:00:08;;;;;;;39.23;4.13;;;;;;;6.26;100.00;97101.00;5077876;28;20603;-65
2021/12/11 07:02:35;;;;;;;21.53;2.73;;;;;;;6.19;100.00;97115.56;5077832;28;20650;-65
2021/12/11 07:05:04;;;;;;;92.53;6.27;;;;;;;6.21;100.00;97124.03;5081228;28;20598;-65
2021/12/11 07:07:34;;;;;;;14.77;2.10;;;;;;;6.10;100.00;97128.44;5081191;28;20660;-65
2021/12/11 07:10:01;;;;;;;25.83;3.20;;;;;;;6.05;100.00;97128.41;5077421;28;20611;-65
2021/12/11 07:12:29;;;;;;;38.60;3.57;;;;;;;6.10;100.00;97130.28;5077658;28;20621;-65
2021/12/11 07:14:56;;;;;;;18.87;2.73;;;;;;;6.15;100.00;97144.41;5080840;28;20614;-65
2021/12/11 07:17:24;;;;;;;7.57;2.00;;;;;;;6.10;100.00;97147.00;5081240;28;20625;-65
2021/12/11 07:19:51;;;;;;;31.73;3.47;;;;;;;6.06;100.00;97153.06;5080988;28;20590;-64
2021/12/11 07:22:19;;;;;;;15.67;2.40;;;;;;;6.03;100.00;97153.59;5077665;28;20757;-66
2021/12/11 07:24:49;;;;;;;23.47;3.03;;;;;;;6.03;100.00;97169.47;5079205;28;20603;-65
2021/12/11 07:27:16;;;;;;;57.13;4.60;;;;;;;5.96;100.00;97167.03;5081016;28;20602;-65
2021/12/11 07:29:43;;;;;;;27.90;3.00;;;;;;;5.86;100.00;97175.69;5079732;28;20609;-64
2021/12/11 07:32:11;;;;;;;48.50;4.10;;;;;;;5.97;100.00;97174.72;5077454;28;20603;-65
2021/12/11 07:34:38;;;;;;;36.70;3.93;;;;;;;6.02;100.00;97184.59;5077909;28;20662;-65
2021/12/11 07:37:06;;;;;;;13.30;2.47;;;;;;;6.05;100.00;97191.22;5081105;28;20597;-64
2021/12/11 07:39:34;;;;;;;21.77;3.20;;;;;;;6.07;100.00;97197.88;5080820;28;20611;-65
2021/12/11 07:42:01;;;;;;;7.10;2.57;;;;;;;6.07;100.00;97197.88;5069086;28;20649;-65
2021/12/11 07:44:28;;;;;;;24.07;3.40;;;;;;;6.09;100.00;97214.34;5069098;28;20603;-64
2021/12/11 07:46:56;;;;;;;29.17;4.40;;;;;;;5.98;100.00;97220.56;5068764;28;20626;-65
2021/12/11 07:49:22;;;;;;;19.13;3.83;;;;;;;5.99;100.00;97230.13;5078122;28;20590;-65
2021/12/11 07:51:50;;;;;;;89.17;7.23;;;;;;;6.05;100.00;97233.63;5078120;28;20667;-64
2021/12/11 07:54:17;;;;;;;19.40;3.10;;;;;;;6.05;100.00;97250.34;5077282;28;20630;-65
2021/12/11 07:56:45;;;;;;;36.67;4.03;;;;;;;6.04;100.00;97248.72;5078647;28;20629;-65
2021/12/11 07:59:12;;;;;;;25.47;3.33;;;;;;;6.08;100.00;97252.50;5080786;28;20610;-65
2021/12/11 08:01:43;;;;;;;50.60;5.10;;;;;;;6.06;100.00;97256.44;5079709;28;20687;-65
2021/12/11 08:04:11;;;;;;;20.23;3.83;;;;;;;6.09;100.00;97264.72;5077065;28;20595;-65
2021/12/11 08:06:38;;;;;;;21.37;3.27;;;;;;;6.12;100.00;97261.56;5077488;28;20591;-65
2021/12/11 08:09:08;;;;;;;65.93;5.70;;;;;;;6.13;100.00;97273.75;5080638;28;20605;-65
2021/12/11 08:11:35;;;;;;;27.87;3.73;;;;;;;6.10;100.00;97266.28;5082961;28;20636;-65
2021/12/11 08:14:05;;;;;;;26.53;3.60;;;;;;;6.10;100.00;97274.25;5081005;28;20657;-65
2021/12/11 08:16:44;;;;;;;23.50;2.70;;;;;;;6.03;100.00;97284.25;5080849;28;20621;-66
2021/12/11 08:19:10;;;;;;;21.27;3.30;;;;;;;5.92;100.00;97299.22;5086979;28;20717;-65
2021/12/11 08:21:37;;;;;;;61.17;5.87;;;;;;;5.94;100.00;97299.78;5083278;28;20598;-64
2021/12/11 08:24:06;;;;;;;13.63;3.00;;;;;;;6.01;100.00;97307.53;5080821;28;20599;-65
2021/12/11 08:26:35;;;;;;;29.43;4.00;;;;;;;5.92;100.00;97306.38;5080678;28;20638;-66
2021/12/11 08:29:04;;;;;;;52.53;5.53;;;;;;;5.98;100.00;97330.03;5080680;28;20607;-65
2021/12/11 08:31:31;;;;;;;28.33;3.70;;;;;;;6.02;100.00;97327.69;5080667;28;20607;-65
2021/12/11 08:33:58;;;;;;;33.80;4.13;;;;;;;6.07;100.00;97329.59;5084009;28;20617;-65
2021/12/11 08:36:26;;;;;;;20.07;2.90;;;;;;;5.86;100.00;97341.81;5084055;28;20598;-65
2021/12/11 08:38:53;;;;;;;62.83;5.50;;;;;;;5.83;100.00;97342.28;5081314;28;21171;-67
2021/12/11 08:41:27;;;;;;;16.63;3.70;;;;;;;5.75;100.00;97355.97;5080437;28;20627;-65
2021/12/11 08:43:58;;;;;;;27.23;4.60;;;;;;;5.81;100.00;97352.34;5083128;28;20606;-64
2021/12/11 08:46:29;;;;;;;26.97;3.50;;;;;;;5.82;100.00;97362.66;5083849;28;20654;-68
2021/12/11 08:48:58;;;;;;;12.70;2.77;;;;;;;5.79;100.00;97367.66;5084733;28;20602;-65
2021/12/11 08:51:28;;;;;;;21.97;4.10;;;;;;;5.70;100.00;97375.22;5083791;28;20594;-65
2021/12/11 08:53:56;;;;;;;25.27;3.50;;;;;;;5.79;100.00;97378.25;5080548;28;20633;-64
2021/12/11 08:56:23;;;;;;;21.77;2.93;;;;;;;5.78;100.00;97392.56;5080320;28;21064;-65
2021/12/11 08:58:50;;;;;;;18.87;3.43;;;;;;;5.72;100.00;97404.13;5082413;28;20648;-66
2021/12/11 09:01:24;;;;;;;57.53;5.70;;;;;;;5.64;100.00;97392.09;5083812;28;20602;-65
2021/12/11 09:03:56;;;;;;;30.97;4.40;;;;;;;5.80;100.00;97401.88;5080921;28;20641;-65
2021/12/11 09:06:28;;;;;;;30.67;4.27;;;;;;;5.71;100.00;97402.53;5080078;28;20599;-65
2021/12/11 09:08:59;;;;;;;10.37;3.17;;;;;;;5.58;100.00;97408.97;5082703;28;20664;-66
2021/12/11 09:11:30;;;;;;;12.80;3.10;;;;;;;5.45;100.00;97410.09;5083346;28;21084;-65
2021/12/11 09:14:03;;;;;;;54.67;5.57;;;;;;;5.36;100.00;97410.75;5079852;28;20653;-64
2021/12/11 09:16:33;;;;;;;28.77;4.27;;;;;;;5.55;100.00;97421.88;5079800;28;20634;-64
2021/12/11 09:19:08;;;;;;;22.53;4.20;;;;;;;5.63;100.00;97422.28;5084527;28;20590;-64
2021/12/11 09:21:39;;;;;;;23.70;3.70;;;;;;;5.67;100.00;97425.25;5082506;28;20586;-65
2021/12/11 09:24:10;;;;;;;14.33;3.30;;;;;;;5.58;100.00;97419.56;5079834;28;20611;-64
2021/12/11 09:26:43;;;;;;;60.03;7.50;;;;;;;5.69;100.00;97429.28;5078871;28;20603;-65
2021/12/11 09:29:15;;;;;;;29.23;4.40;;;;;;;5.75;100.00;97438.91;5083072;28;20602;-65
2021/12/11 09:31:47;;;;;;;32.73;5.00;;;;;;;5.81;100.00;97437.94;5081727;28;20628;-65
2021/12/11 09:34:20;;;;;;;79.60;7.47;;;;;;;5.83;100.00;97445.63;5079455;28;20698;-65
2021/12/11 09:36:50;;;;;;;36.50;5.57;;;;;;;5.87;100.00;97454.72;5081354;28;21069;-65
2021/12/11 09:39:23;;;;;;;28.93;4.77;;;;;;;5.93;100.00;97461.69;5083015;28;20617;-64
2021/12/11 09:41:49;;;;;;;49.57;6.00;;;;;;;5.86;100.00;97467.16;5080419;28;20585;-65
2021/12/11 09:44:20;;;;;;;35.47;5.70;;;;;;;5.90;100.00;97467.47;5079228;28;20705;-64
2021/12/11 09:46:50;;;;;;;34.87;5.20;;;;;;;5.89;100.00;97479.13;5081077;28;20611;-65
2021/12/11 09:49:20;;;;;;;29.13;5.87;;;;;;;5.94;100.00;97482.63;5085128;28;20598;-65
2021/12/11 09:51:51;;;;;;;41.47;6.90;;;;;;;5.89;100.00;97479.94;5080716;28;20582;-65
2021/12/11 09:54:22;;;;;;;37.07;5.60;;;;;;;5.48;100.00;97482.19;5079262;28;20642;-64
2021/12/11 09:56:55;;;;;;;50.67;6.47;;;;;;;5.52;100.00;97488.59;5081083;28;20611;-65
2021/12/11 09:59:25;;;;;;;23.23;3.57;;;;;;;5.59;100.00;97495.34;5082724;28;20636;-65
2021/12/11 10:01:54;;;;;;;27.83;5.47;;;;;;;5.59;100.00;97505.13;5079922;28;20611;-65
2021/12/11 10:04:28;;;;;;;22.80;4.90;;;;;;;5.63;100.00;97501.75;5077971;28;20634;-64
2021/12/11 10:09:43;;;;;;;27.37;6.27;;;;;;;5.52;100.00;97509.78;5081341;28;20680;-64
2021/12/11 10:12:14;;;;;;;22.77;4.60;;;;;;;5.57;100.00;97520.47;5078726;28;20626;-65
2021/12/11 10:14:45;;;;;;;41.33;6.40;;;;;;;5.53;100.00;97519.34;5079602;28;20677;-65
2021/12/11 10:17:16;;;;;;;38.93;6.53;;;;;;;5.61;100.00;97525.03;5082244;28;20617;-66
2021/12/11 10:19:44;;;;;;;36.07;5.30;;;;;;;5.39;100.00;97527.56;5082998;28;20646;-65
2021/12/11 10:22:16;;;;;;;40.60;5.83;;;;;;;5.52;100.00;97531.75;5078429;28;20599;-64
2021/12/11 10:24:43;;;;;;;32.43;5.73;;;;;;;5.41;100.00;97530.81;5079818;28;20611;-65
2021/12/11 10:27:15;;;;;;;45.57;6.50;;;;;;;5.46;100.00;97535.38;5081946;28;20606;-65
2021/12/11 10:29:45;;;;;;;68.43;8.00;;;;;;;5.54;100.00;97534.19;5080589;28;20590;-66
2021/12/11 10:32:17;;;;;;;90.63;8.70;;;;;;;5.63;100.00;97541.47;5077889;28;20619;-64
2021/12/11 10:34:48;;;;;;;52.00;7.23;;;;;;;5.33;100.00;97544.41;5078878;28;20638;-65
2021/12/11 10:37:19;;;;;;;84.80;8.63;;;;;;;5.45;100.00;97545.16;5081565;28;20619;-65
2021/12/11 10:39:50;;;;;;;58.53;7.80;;;;;;;5.62;100.00;97541.72;5079662;28;20645;-65
2021/12/11 10:42:18;;;;;;;27.60;4.77;;;;;;;5.67;100.00;97549.75;5078192;28;20625;-65
2021/12/11 10:44:49;;;;;;;73.27;8.13;;;;;;;5.75;100.00;97554.66;5079435;28;20634;-64
2021/12/11 10:47:20;;;;;;;31.23;5.23;;;;;;;5.74;100.00;97555.69;5081745;28;20621;-65
2021/12/11 10:49:48;;;;;;;33.43;5.40;;;;;;;5.73;100.00;97560.19;5082038;28;20594;-65
2021/12/11 10:52:18;;;;;;;58.23;6.57;;;;;;;5.87;100.00;97563.38;5078016;28;20611;-64
2021/12/11 10:54:46;;;;;;;57.80;8.77;;;;;;;5.89;100.00;97566.56;5079096;28;20660;-66
2021/12/11 10:57:15;;;;;;;33.83;4.77;;;;;;;5.95;100.00;97560.31;5081393;28;20602;-65
2021/12/11 10:59:45;;;;;;;44.97;5.60;;;;;;;6.02;100.00;97562.78;5080160;28;20753;-66
2021/12/11 11:02:15;;;;;;;61.20;7.50;;;;;;;6.09;100.00;97564.25;5077891;28;20611;-66
2021/12/11 11:04:47;;;;;;;38.20;5.83;;;;;;;6.12;100.00;97568.25;5080228;28;20607;-65
2021/12/11 11:07:16;;;;;;;45.57;5.57;;;;;;;5.78;100.00;97583.34;5084385;28;20591;-65
2021/12/11 11:09:45;;;;;;;50.00;6.70;;;;;;;5.85;100.00;97591.91;5082759;28;20649;-65
2021/12/11 11:12:16;;;;;;;56.43;6.90;;;;;;;5.81;100.00;97594.25;5080609;28;20668;-65
2021/12/11 11:14:45;;;;;;;33.73;5.67;;;;;;;5.83;100.00;97601.94;5081945;28;20641;-65
2021/12/11 11:17:18;;;;;;;56.00;7.07;;;;;;;5.77;100.00;97609.03;5084128;28;20618;-65
2021/12/11 11:19:48;;;;;;;45.40;6.67;;;;;;;5.82;100.00;97611.75;5084722;28;20654;-64
2021/12/11 11:22:18;;;;;;;27.63;5.73;;;;;;;5.87;100.00;97616.38;5080447;28;20630;-65
2021/12/11 11:24:51;;;;;;;49.37;8.03;;;;;;;5.92;100.00;97624.41;5082035;28;20622;-65
2021/12/11 11:27:20;;;;;;;50.87;6.83;;;;;;;5.82;100.00;97625.00;5084046;28;20586;-66
2021/12/11 11:29:49;;;;;;;59.93;7.70;;;;;;;5.81;100.00;97635.84;5081967;28;20685;-65
2021/12/11 11:32:31;;;;;;;53.47;6.60;;;;;;;5.82;100.00;97638.25;5080701;28;20629;-65
2021/12/11 11:35:02;;;;;;;37.47;6.27;;;;;;;5.81;100.00;97654.41;5083861;28;20601;-64
2021/12/11 11:37:35;;;;;;;32.07;6.23;;;;;;;5.79;100.00;97657.25;5084057;28;20606;-64
2021/12/11 11:40:07;;;;;;;38.77;7.07;;;;;;;5.79;100.00;97659.09;5072282;28;20621;-65
2021/12/11 11:42:36;;;;;;;64.33;8.10;;;;;;;5.65;100.00;97655.97;5072065;28;21061;-66